Alamo, Georgia
Current Conditions -  °F | °C
As of 11:15 AM on Friday 19 Dec 2014 (Local Time) from KAZE Reporting Station
Clear Clear  
Wind Chill: 52°   Ceiling: Unl
Heat Index: 52°   Visibility: 10mi
Dew Point: 42°   Wind: 0mph
Humidity: 68%   Direction: NA
Pressure: 30.17"   Gusts: NA
Location:  32.15°N, 82.78°W
Report Text: KAZE 191615Z AUTO 00000KT 10SM CLR 11/05 A3017 RMK AO2 T01100053
Loading
Personal Weather Stations






























Interactive Weather Map New forecast layout! Learn more

10-Day Weather Forecast

Advertisements
Track Severe Weather on mobile